Time;durP1;ratioP1;P1;durP2;ratioP2;P2;SDS_P1;SDS_P2;PMS_P1;PMS_P2;Temp;Humidity;BMP_temperature;BMP_pressure;BME280_temperature;BME280_humidity;BME280_pressure;Samples;Min_cycle;Max_cycle;Signal;HPM_P1;HPM_P2
2022/11/24 00:00:01;;;;;;;4.22;1.95;;;;;;;2.42;77.78;92057.88;2071341;69;20243;-78
2022/11/24 00:02:29;;;;;;;2.50;1.73;;;;;;;2.39;78.60;92061.81;2071344;69;20306;-78
2022/11/24 00:04:58;;;;;;;3.22;1.80;;;;;;;2.35;78.61;92061.50;2068424;69;20140;-78
2022/11/24 00:07:24;;;;;;;3.08;1.75;;;;;;;2.54;77.79;92073.47;2071898;69;20140;-77
2022/11/24 00:09:49;;;;;;;4.95;1.98;;;;;;;2.48;77.57;92064.66;2071915;69;20164;-77
2022/11/24 00:12:15;;;;;;;2.95;1.85;;;;;;;2.68;77.28;92071.06;2071768;69;20484;-77
2022/11/24 00:14:40;;;;;;;1.83;1.45;;;;;;;2.59;77.70;92068.97;2071817;69;20250;-78
2022/11/24 00:17:06;;;;;;;4.07;2.15;;;;;;;2.69;76.47;92074.59;2071627;69;20175;-77
2022/11/24 00:19:31;;;;;;;3.75;1.92;;;;;;;2.78;76.82;92071.13;2071679;69;20163;-75
2022/11/24 00:21:57;;;;;;;2.10;1.40;;;;;;;2.68;77.79;92087.03;2071835;69;20484;-75
2022/11/24 00:24:23;;;;;;;4.03;2.10;;;;;;;2.52;76.36;92062.22;2071781;69;20152;-77
2022/11/24 00:26:48;;;;;;;3.67;2.40;;;;;;;2.36;77.98;92097.03;2071687;69;20164;-77
2022/11/24 00:29:14;;;;;;;3.35;2.20;;;;;;;2.68;77.16;92098.88;2071686;69;20148;-78
2022/11/24 00:31:41;;;;;;;5.40;2.55;;;;;;;2.87;76.39;92105.88;2071616;69;20148;-77
2022/11/24 00:34:10;;;;;;;6.88;2.58;;;;;;;2.91;76.36;92111.75;2071656;69;20140;-77
2022/11/24 00:36:37;;;;;;;5.25;2.40;;;;;;;2.63;77.24;92113.75;2071662;69;20188;-76
2022/11/24 00:39:05;;;;;;;5.32;2.28;;;;;;;2.76;77.04;92102.28;2065490;69;20233;-77
2022/11/24 00:41:31;;;;;;;3.95;2.00;;;;;;;2.87;76.29;92103.81;2071736;69;20168;-77
2022/11/24 00:43:58;;;;;;;4.13;2.30;;;;;;;2.86;75.68;92115.53;2071715;69;20153;-77
2022/11/24 00:46:24;;;;;;;4.70;2.42;;;;;;;2.76;76.49;92115.47;2071617;69;20144;-77
2022/11/24 00:48:51;;;;;;;7.60;2.33;;;;;;;2.75;76.38;92094.53;2071674;69;20235;-76
2022/11/24 00:51:18;;;;;;;6.20;2.63;;;;;;;2.73;76.43;92103.44;2071781;69;20379;-77
2022/11/24 00:53:44;;;;;;;3.75;2.08;;;;;;;2.67;75.85;92108.53;2071486;69;20628;-77
2022/11/24 00:56:11;;;;;;;3.13;2.10;;;;;;;2.60;75.98;92112.13;2068313;69;20236;-76
2022/11/24 00:58:37;;;;;;;4.43;2.13;;;;;;;2.54;76.37;92108.84;2071631;69;20623;-77
2022/11/24 01:01:10;;;;;;;4.55;2.20;;;;;;;2.23;78.34;92117.50;2071760;69;20253;-77
2022/11/24 01:03:36;;;;;;;5.10;2.38;;;;;;;2.45;77.15;92137.31;2068272;69;20168;-77
2022/11/24 01:06:07;;;;;;;4.43;2.22;;;;;;;2.26;78.16;92137.88;2071613;69;20149;-77
2022/11/24 01:08:35;;;;;;;3.15;2.13;;;;;;;2.37;78.82;92147.75;2071818;69;20183;-77
2022/11/24 01:11:18;;;;;;;4.63;2.45;;;;;;;2.45;78.17;92148.41;2071555;69;20239;-77
2022/11/24 01:13:46;;;;;;;3.88;2.13;;;;;;;2.48;78.33;92155.63;2071365;69;20140;-78
2022/11/24 01:16:37;;;;;;;3.33;1.80;;;;;;;2.55;77.92;92161.06;2071303;69;20172;-77
2022/11/24 01:19:04;;;;;;;3.42;1.75;;;;;;;2.52;78.54;92159.47;2070878;69;20145;-77
2022/11/24 01:21:29;;;;;;;4.28;1.90;;;;;;;2.51;78.62;92160.00;2071237;69;20164;-77
2022/11/24 01:23:56;;;;;;;2.10;1.63;;;;;;;2.65;78.22;92154.84;2067745;69;20159;-77
2022/11/24 01:26:22;;;;;;;3.00;1.67;;;;;;;2.60;78.55;92162.13;2071119;69;20148;-77
2022/11/24 01:28:55;;;;;;;4.45;2.60;;;;;;;2.57;78.40;92156.97;2071035;69;20183;-77
2022/11/24 01:31:21;;;;;;;4.55;2.20;;;;;;;2.68;77.64;92170.41;2071126;69;20188;-77
2022/11/24 01:33:46;;;;;;;2.88;2.03;;;;;;;2.76;77.72;92168.28;2071500;69;20168;-77
2022/11/24 01:36:12;;;;;;;3.35;1.83;;;;;;;2.73;78.09;92161.06;2071660;69;20619;-77
2022/11/24 01:38:41;;;;;;;2.25;1.60;;;;;;;2.85;77.63;92167.63;2071552;69;20216;-77
2022/11/24 01:41:20;;;;;;;3.88;2.05;;;;;;;2.50;78.45;92156.50;2071578;69;20254;-77
2022/11/24 01:43:47;;;;;;;4.07;2.35;;;;;;;2.35;78.38;92169.81;2071726;69;20619;-77
2022/11/24 01:46:16;;;;;;;3.85;2.20;;;;;;;2.27;79.68;92165.06;2071535;69;20198;-76
2022/11/24 01:48:53;;;;;;;3.78;2.00;;;;;;;2.49;78.61;92176.53;2071441;69;20513;-77
2022/11/24 01:51:24;;;;;;;3.22;2.03;;;;;;;2.49;78.08;92184.88;2071660;69;20147;-77
2022/11/24 01:53:56;;;;;;;3.20;1.90;;;;;;;2.47;78.03;92188.19;2071627;69;20156;-77
2022/11/24 01:56:22;;;;;;;4.93;2.00;;;;;;;2.52;77.07;92192.03;2071647;69;20183;-77
2022/11/24 01:58:50;;;;;;;3.15;2.00;;;;;;;2.53;78.04;92207.44;2071696;69;20145;-78
2022/11/24 02:01:17;;;;;;;3.03;1.80;;;;;;;2.49;78.35;92213.38;2071378;69;20264;-76
2022/11/24 02:03:45;;;;;;;3.15;1.90;;;;;;;2.39;79.53;92217.38;2063854;69;20175;-77
2022/11/24 02:06:15;;;;;;;2.17;1.77;;;;;;;2.51;79.10;92219.09;2067347;69;20221;-77
2022/11/24 02:08:59;;;;;;;3.63;2.03;;;;;;;2.34;79.32;92221.88;2070899;69;20248;-77
2022/11/24 02:11:28;;;;;;;4.75;1.90;;;;;;;2.46;78.91;92225.63;2068223;69;20236;-77
2022/11/24 02:13:55;;;;;;;3.33;2.00;;;;;;;2.48;78.06;92231.38;2071500;69;20168;-77
2022/11/24 02:16:21;;;;;;;3.50;2.10;;;;;;;2.48;77.63;92228.59;2071388;69;20163;-77
2022/11/24 02:18:46;;;;;;;3.78;2.03;;;;;;;2.42;79.27;92225.28;2071172;69;20156;-77
2022/11/24 02:21:16;;;;;;;4.18;2.08;;;;;;;2.58;78.71;92234.22;2071584;69;20225;-78
2022/11/24 02:23:59;;;;;;;2.38;1.70;;;;;;;2.68;78.31;92235.06;2071618;69;20598;-77
2022/11/24 02:26:24;;;;;;;3.85;1.95;;;;;;;2.57;78.88;92238.31;2068180;69;20219;-77
2022/11/24 02:28:50;;;;;;;3.45;2.10;;;;;;;2.67;78.45;92253.03;2064628;69;20149;-77
2022/11/24 02:31:17;;;;;;;3.47;2.25;;;;;;;2.44;78.45;92246.97;2061499;69;20542;-76
2022/11/24 02:33:43;;;;;;;4.38;2.40;;;;;;;2.20;79.85;92235.31;2061359;69;20614;-76
2022/11/24 02:36:09;;;;;;;2.88;1.92;;;;;;;2.39;79.79;92231.28;2060923;69;20153;-77
2022/11/24 02:38:35;;;;;;;4.22;2.35;;;;;;;2.37;80.12;92236.66;2061277;69;20168;-77
2022/11/24 02:41:10;;;;;;;4.35;2.10;;;;;;;2.48;79.50;92230.63;2061224;69;20145;-77
2022/11/24 02:43:47;;;;;;;3.35;1.95;;;;;;;2.35;80.26;92230.94;2060823;69;20133;-77
2022/11/24 02:46:13;;;;;;;4.45;1.90;;;;;;;2.49;79.93;92234.88;2061258;69;20165;-74
2022/11/24 02:48:38;;;;;;;2.92;1.52;;;;;;;2.49;79.09;92235.59;2061352;69;20164;-75
2022/11/24 02:51:05;;;;;;;3.55;1.63;;;;;;;2.39;80.87;92248.66;2061396;69;20145;-77
2022/11/24 02:53:31;;;;;;;3.38;2.10;;;;;;;2.40;80.87;92246.63;2061407;69;20157;-77
2022/11/24 02:55:56;;;;;;;2.72;1.67;;;;;;;2.54;79.78;92258.91;2061507;69;20197;-77
2022/11/24 02:58:22;;;;;;;4.38;2.03;;;;;;;2.62;78.99;92264.41;2061367;69;20178;-77
2022/11/24 03:00:48;;;;;;;3.00;1.73;;;;;;;2.43;79.56;92276.78;2061382;69;20589;-77
2022/11/24 03:03:13;;;;;;;3.15;1.90;;;;;;;2.51;79.45;92273.94;2060763;69;20247;-75
2022/11/24 03:05:42;;;;;;;3.55;2.40;;;;;;;2.42;79.51;92278.06;2061395;69;20231;-77
2022/11/24 03:08:09;;;;;;;4.95;2.10;;;;;;;2.30;80.02;92279.88;2061326;69;20153;-77
2022/11/24 03:10:35;;;;;;;3.38;1.80;;;;;;;2.57;79.06;92287.59;2061417;69;20145;-76
2022/11/24 03:13:01;;;;;;;2.15;1.67;;;;;;;2.48;79.15;92292.50;2061475;69;20161;-77
2022/11/24 03:15:26;;;;;;;3.00;1.80;;;;;;;2.47;80.54;92288.22;2055220;69;20230;-77
2022/11/24 03:17:54;;;;;;;2.78;1.83;;;;;;;2.55;80.02;92286.13;2061387;69;20152;-76
2022/11/24 03:20:20;;;;;;;4.63;1.95;;;;;;;2.61;79.07;92299.81;2061437;69;20129;-77
2022/11/24 03:22:45;;;;;;;3.25;1.88;;;;;;;2.75;78.54;92303.00;2066252;69;20152;-75
2022/11/24 03:25:12;;;;;;;2.95;1.73;;;;;;;2.67;78.46;92291.22;2068120;69;20136;-76
2022/11/24 03:27:38;;;;;;;3.20;2.08;;;;;;;2.32;79.79;92299.47;2068561;69;20158;-76
2022/11/24 03:30:04;;;;;;;4.20;2.20;;;;;;;2.43;79.68;92310.13;2072842;69;20200;-76
2022/11/24 03:32:30;;;;;;;3.72;2.10;;;;;;;2.49;79.45;92318.22;2068723;69;20152;-75
2022/11/24 03:34:56;;;;;;;2.72;1.73;;;;;;;2.52;79.04;92314.31;2071509;69;20151;-75
2022/11/24 03:37:22;;;;;;;3.50;2.00;;;;;;;2.53;78.91;92321.34;2071251;69;20179;-75
2022/11/24 03:39:51;;;;;;;3.03;2.08;;;;;;;2.37;79.66;92309.59;2068023;69;20144;-76
2022/11/24 03:42:16;;;;;;;4.25;2.03;;;;;;;2.43;79.52;92307.34;2071467;69;20225;-76
2022/11/24 03:44:42;;;;;;;2.90;1.48;;;;;;;2.43;80.34;92301.03;2071380;69;20148;-76
2022/11/24 03:47:09;;;;;;;4.30;1.67;;;;;;;2.44;80.49;92300.50;2071198;69;20175;-75
2022/11/24 03:49:35;;;;;;;2.47;1.58;;;;;;;2.49;79.41;92282.13;2071352;69;20213;-76
2022/11/24 03:52:00;;;;;;;4.70;1.50;;;;;;;2.46;80.71;92280.47;2071237;69;20519;-76
2022/11/24 03:54:26;;;;;;;3.00;1.40;;;;;;;2.52;79.88;92289.28;2071216;69;20156;-76
2022/11/24 03:56:52;;;;;;;2.00;1.10;;;;;;;2.66;78.79;92300.88;2071313;69;20171;-75
2022/11/24 03:59:18;;;;;;;3.53;1.60;;;;;;;2.39;80.31;92306.28;2071251;69;20575;-75
2022/11/24 04:01:44;;;;;;;5.65;3.00;;;;;;;2.48;78.94;92314.72;2071037;69;20155;-76
2022/11/24 04:04:11;;;;;;;5.03;3.28;;;;;;;2.53;78.75;92315.78;2071155;69;20227;-75
2022/11/24 04:06:37;;;;;;;2.75;1.60;;;;;;;2.38;79.36;92318.66;2071237;69;20196;-75
2022/11/24 04:09:04;;;;;;;6.65;2.55;;;;;;;2.35;79.17;92315.00;2071187;69;20149;-75
2022/11/24 04:14:15;;;;;;;5.43;4.18;;;;;;;2.44;79.41;92313.66;2068458;69;20184;-75
2022/11/24 04:16:41;;;;;;;3.92;1.90;;;;;;;2.49;79.79;92315.44;2071009;69;20136;-75
2022/11/24 04:19:08;;;;;;;3.90;2.63;;;;;;;2.57;79.04;92321.69;2071187;69;20226;-76
2022/11/24 04:21:35;;;;;;;4.30;2.30;;;;;;;2.66;78.96;92325.88;2067870;69;20611;-75
2022/11/24 04:24:02;;;;;;;3.88;2.22;;;;;;;2.58;79.37;92336.31;2071159;69;20209;-76
2022/11/24 04:26:28;;;;;;;5.28;1.80;;;;;;;2.46;80.24;92341.59;2071095;69;20348;-76
2022/11/24 04:28:54;;;;;;;4.72;2.10;;;;;;;2.43;80.17;92351.81;2071245;69;20196;-75
2022/11/24 04:31:20;;;;;;;3.58;2.30;;;;;;;2.57;79.47;92354.28;2071125;69;20167;-75
2022/11/24 04:33:45;;;;;;;5.85;2.17;;;;;;;2.59;79.38;92352.41;2071019;69;20592;-75
2022/11/24 04:36:11;;;;;;;4.63;2.33;;;;;;;2.61;79.03;92360.19;2071136;69;20603;-75
2022/11/24 04:38:36;;;;;;;6.38;2.63;;;;;;;2.67;79.23;92360.72;2071219;69;20175;-76
2022/11/24 04:41:05;;;;;;;3.95;2.40;;;;;;;2.70;78.81;92368.66;2071145;69;20152;-76
2022/11/24 04:43:31;;;;;;;5.70;3.72;;;;;;;2.64;79.29;92378.50;2067791;69;20243;-76
2022/11/24 04:46:00;;;;;;;9.13;5.68;;;;;;;2.72;79.51;92382.72;2071038;69;20172;-75
2022/11/24 04:48:27;;;;;;;11.18;7.05;;;;;;;2.55;79.49;92377.81;2071411;69;20186;-76
2022/11/24 04:50:53;;;;;;;7.20;5.47;;;;;;;2.49;80.60;92382.13;2071695;69;20581;-76
2022/11/24 04:53:19;;;;;;;8.20;5.80;;;;;;;2.68;79.48;92390.69;2071566;69;20152;-76
2022/11/24 04:55:45;;;;;;;9.57;5.13;;;;;;;2.75;78.83;92392.69;2071702;69;20144;-76
2022/11/24 04:58:12;;;;;;;9.75;5.68;;;;;;;2.68;79.45;92403.88;2071599;69;20158;-76
2022/11/24 05:00:44;;;;;;;11.73;6.15;;;;;;;2.71;79.74;92394.41;2071714;69;20171;-77
2022/11/24 05:03:11;;;;;;;13.13;7.45;;;;;;;2.71;80.53;92388.84;2071489;69;20132;-77
2022/11/24 05:05:36;;;;;;;65.07;23.50;;;;;;;2.75;79.58;92397.53;2071543;69;20158;-77
2022/11/24 05:08:02;;;;;;;188.93;61.83;;;;;;;2.76;79.45;92399.00;2068154;69;20610;-76
2022/11/24 05:10:36;;;;;;;94.85;32.22;;;;;;;2.74;79.15;92399.53;2071729;69;20155;-76
2022/11/24 05:13:09;;;;;;;35.03;15.52;;;;;;;2.65;79.64;92394.59;2071527;69;20148;-75
2022/11/24 05:15:37;;;;;;;41.13;16.38;;;;;;;2.69;79.41;92402.56;2071723;69;20232;-76
2022/11/24 05:18:04;;;;;;;27.95;13.00;;;;;;;2.70;79.12;92407.56;2071458;69;20145;-76
2022/11/24 05:20:30;;;;;;;19.65;10.25;;;;;;;2.77;78.95;92412.31;2071744;69;20163;-76
2022/11/24 05:23:02;;;;;;;11.13;6.93;;;;;;;2.48;80.12;92411.97;2071567;69;20160;-77
2022/11/24 05:25:30;;;;;;;11.07;6.65;;;;;;;2.26;82.56;92412.84;2068277;69;20233;-77
2022/11/24 05:28:02;;;;;;;10.88;6.70;;;;;;;2.53;80.79;92416.56;2065497;69;20132;-77
2022/11/24 05:30:29;;;;;;;7.45;4.50;;;;;;;2.54;80.15;92422.84;2068399;69;20141;-78
2022/11/24 05:32:56;;;;;;;10.10;4.97;;;;;;;2.38;80.02;92415.91;2071466;69;20516;-77
2022/11/24 05:35:22;;;;;;;9.55;5.38;;;;;;;2.21;80.92;92428.41;2071568;69;20265;-78
2022/11/24 05:37:49;;;;;;;5.88;4.40;;;;;;;2.38;80.69;92433.31;2071439;69;20184;-78
2022/11/24 05:40:15;;;;;;;8.70;4.28;;;;;;;2.45;80.52;92424.22;2071547;69;20607;-77
2022/11/24 05:42:41;;;;;;;6.63;3.80;;;;;;;2.50;80.07;92436.41;2071586;69;20623;-78
2022/11/24 05:45:12;;;;;;;6.15;3.38;;;;;;;1.91;82.98;92439.66;2071621;69;20175;-78
2022/11/24 05:47:39;;;;;;;6.20;3.53;;;;;;;2.29;81.66;92447.81;2071528;69;20152;-78
2022/11/24 05:50:05;;;;;;;9.80;3.47;;;;;;;2.29;81.53;92451.34;2071599;69;20147;-77
2022/11/24 05:52:31;;;;;;;5.47;3.45;;;;;;;2.44;80.64;92450.53;2071583;69;20156;-78
2022/11/24 05:54:57;;;;;;;8.13;4.40;;;;;;;2.01;82.10;92457.94;2071445;69;20206;-77
2022/11/24 05:57:22;;;;;;;9.65;5.18;;;;;;;2.25;81.51;92462.09;2071381;69;20219;-76
2022/11/24 05:59:48;;;;;;;12.30;5.05;;;;;;;2.30;81.09;92454.84;2071445;69;20171;-77
2022/11/24 06:02:14;;;;;;;11.35;4.53;;;;;;;2.40;80.55;92474.44;2071465;69;20160;-78
2022/11/24 06:04:39;;;;;;;7.85;4.40;;;;;;;2.43;80.44;92476.06;2071822;69;20272;-77
2022/11/24 06:07:10;;;;;;;8.45;4.88;;;;;;;2.38;80.27;92480.53;2071769;69;20232;-77
2022/11/24 06:09:39;;;;;;;23.75;11.30;;;;;;;2.49;80.40;92479.41;2071615;69;20184;-77
2022/11/24 06:12:06;;;;;;;14.57;8.10;;;;;;;2.23;82.17;92483.41;2071632;69;20560;-78
2022/11/24 06:14:32;;;;;;;13.05;7.50;;;;;;;2.17;82.58;92491.94;2071599;69;20623;-78
2022/11/24 06:16:58;;;;;;;23.77;10.35;;;;;;;2.35;82.17;92490.03;2071326;69;20298;-78
2022/11/24 06:19:24;;;;;;;23.40;11.82;;;;;;;2.45;81.42;92488.13;2071508;69;20136;-78
2022/11/24 06:21:50;;;;;;;14.80;8.18;;;;;;;2.42;81.92;92492.00;2071556;69;20584;-78
2022/11/24 06:24:16;;;;;;;14.05;8.10;;;;;;;2.53;81.07;92488.81;2071534;69;20249;-78
2022/11/24 06:26:41;;;;;;;16.10;8.35;;;;;;;2.38;80.84;92472.19;2071475;69;20255;-78
2022/11/24 06:29:07;;;;;;;14.32;7.63;;;;;;;2.48;81.71;92481.44;2068310;69;20548;-78
2022/11/24 06:31:33;;;;;;;12.48;5.55;;;;;;;2.56;81.89;92486.94;2071462;69;20313;-77
2022/11/24 06:33:59;;;;;;;5.82;3.80;;;;;;;2.60;81.64;92470.63;2071605;69;20324;-77
2022/11/24 06:36:26;;;;;;;8.48;2.78;;;;;;;2.67;82.14;92469.84;2071435;69;20584;-78
2022/11/24 06:38:52;;;;;;;5.82;2.50;;;;;;;2.80;80.91;92466.78;2071615;69;20501;-78
2022/11/24 06:41:18;;;;;;;5.60;2.55;;;;;;;2.74;81.27;92473.88;2071485;69;20155;-78
2022/11/24 06:43:44;;;;;;;4.90;3.00;;;;;;;2.55;82.30;92486.19;2071435;69;20129;-78
2022/11/24 06:46:11;;;;;;;10.98;6.00;;;;;;;2.04;84.03;92481.81;2071508;69;20499;-77
2022/11/24 06:48:37;;;;;;;11.65;5.95;;;;;;;2.37;83.52;92483.88;2067973;69;20243;-77
2022/11/24 06:51:06;;;;;;;12.25;5.70;;;;;;;2.58;82.11;92487.13;2071397;69;20142;-77
2022/11/24 06:53:36;;;;;;;25.90;14.07;;;;;;;2.14;83.08;92501.38;2071449;69;20144;-78
2022/11/24 06:56:07;;;;;;;19.75;12.25;;;;;;;2.19;83.77;92505.25;2071435;69;20128;-78
2022/11/24 06:58:34;;;;;;;17.00;9.77;;;;;;;2.22;83.39;92504.16;2071384;69;20572;-77
2022/11/24 07:01:00;;;;;;;14.18;8.48;;;;;;;2.49;82.08;92509.97;2071355;69;20147;-77
2022/11/24 07:03:26;;;;;;;12.88;8.27;;;;;;;2.37;81.43;92506.84;2071318;69;20160;-77
2022/11/24 07:05:58;;;;;;;12.77;7.63;;;;;;;2.38;82.35;92508.31;2071400;69;20143;-77
2022/11/24 07:08:25;;;;;;;16.95;8.32;;;;;;;2.53;81.47;92519.38;2071430;69;20151;-77
2022/11/24 07:10:54;;;;;;;14.70;8.38;;;;;;;2.53;81.04;92521.44;2071455;69;20167;-77
2022/11/24 07:13:19;;;;;;;12.63;7.05;;;;;;;2.47;81.41;92504.94;2071314;69;20156;-78
2022/11/24 07:15:46;;;;;;;11.50;7.35;;;;;;;2.58;82.14;92516.97;2071263;69;20239;-77
2022/11/24 07:18:12;;;;;;;16.30;8.95;;;;;;;2.67;80.92;92508.75;2071224;69;20208;-77
2022/11/24 07:20:37;;;;;;;23.45;11.95;;;;;;;2.71;80.95;92514.66;2071364;69;20164;-77
2022/11/24 07:23:03;;;;;;;21.20;9.90;;;;;;;2.59;81.48;92510.09;2071470;69;20156;-77
2022/11/24 07:25:28;;;;;;;15.10;8.00;;;;;;;2.80;80.95;92513.31;2071276;69;20140;-77
2022/11/24 07:27:58;;;;;;;17.42;10.27;;;;;;;2.17;82.90;92513.44;2071329;69;20145;-77
2022/11/24 07:30:24;;;;;;;21.75;11.27;;;;;;;2.47;82.95;92515.31;2071566;69;20152;-77
2022/11/24 07:32:50;;;;;;;21.75;11.65;;;;;;;2.62;81.74;92518.06;2067850;69;20152;-77
2022/11/24 07:35:16;;;;;;;21.25;11.13;;;;;;;2.73;80.86;92528.72;2071306;69;20465;-77
2022/11/24 07:37:42;;;;;;;25.33;11.45;;;;;;;2.73;80.81;92519.66;2071354;69;20152;-77
2022/11/24 07:40:09;;;;;;;20.80;10.98;;;;;;;2.76;80.63;92526.88;2071290;69;20167;-77
2022/11/24 07:42:35;;;;;;;11.23;6.25;;;;;;;2.80;80.71;92532.78;2067949;69;20143;-77
2022/11/24 07:45:03;;;;;;;10.82;8.02;;;;;;;2.76;81.50;92546.31;2071415;69;20224;-76
2022/11/24 07:47:29;;;;;;;16.63;9.52;;;;;;;2.60;82.17;92564.38;2071321;69;20176;-77
2022/11/24 07:49:55;;;;;;;16.25;8.52;;;;;;;2.75;82.34;92576.16;2071295;69;20492;-77
2022/11/24 07:52:20;;;;;;;12.38;7.88;;;;;;;2.92;82.37;92569.22;2071430;69;20240;-77
2022/11/24 07:54:46;;;;;;;16.02;9.07;;;;;;;2.82;81.67;92562.78;2071269;69;20154;-77
2022/11/24 07:57:12;;;;;;;19.75;8.73;;;;;;;2.36;83.26;92560.94;2071446;69;20226;-76
2022/11/24 07:59:37;;;;;;;18.50;9.05;;;;;;;2.64;82.75;92542.50;2071336;69;20618;-77
2022/11/24 08:02:03;;;;;;;12.77;7.65;;;;;;;2.78;81.86;92546.50;2071308;69;20470;-77
2022/11/24 08:04:29;;;;;;;15.85;8.30;;;;;;;2.85;81.29;92539.44;2071459;69;20140;-77
2022/11/24 08:06:54;;;;;;;17.35;8.18;;;;;;;2.88;81.27;92541.78;2071419;69;20148;-77
2022/11/24 08:09:20;;;;;;;13.88;7.95;;;;;;;2.86;81.01;92555.53;2071283;69;20572;-77
2022/11/24 08:11:45;;;;;;;15.88;10.93;;;;;;;2.74;81.42;92562.81;2071247;69;20210;-77
2022/11/24 08:14:11;;;;;;;20.70;11.80;;;;;;;2.94;81.26;92567.34;2071236;69;20140;-77
2022/11/24 08:16:38;;;;;;;18.55;11.02;;;;;;;3.03;80.30;92566.00;2067838;69;20259;-77
2022/11/24 08:19:03;;;;;;;22.38;11.48;;;;;;;3.04;81.00;92557.09;2071305;69;20172;-77
2022/11/24 08:21:31;;;;;;;20.25;11.57;;;;;;;2.85;81.31;92559.63;2073521;69;20129;-77
2022/11/24 08:23:57;;;;;;;23.08;13.70;;;;;;;3.11;81.57;92552.78;2079821;69;20156;-77
2022/11/24 08:26:23;;;;;;;21.98;12.27;;;;;;;3.37;80.87;92562.63;2080291;69;20123;-78
2022/11/24 08:28:56;;;;;;;19.67;12.70;;;;;;;3.36;80.58;92566.00;2076526;69;20160;-77
2022/11/24 08:31:23;;;;;;;19.60;10.95;;;;;;;3.49;80.34;92555.31;2073063;69;20188;-77
2022/11/24 08:33:49;;;;;;;14.18;9.27;;;;;;;3.61;80.41;92563.19;2072108;69;20151;-77
2022/11/24 08:36:17;;;;;;;16.25;10.52;;;;;;;3.85;79.86;92559.66;2071957;69;20152;-76
2022/11/24 08:38:47;;;;;;;14.85;8.93;;;;;;;3.93;79.54;92568.66;2068351;69;20178;-76
2022/11/24 08:41:15;;;;;;;11.55;7.47;;;;;;;4.15;79.17;92566.97;2071625;69;20145;-76
2022/11/24 08:43:41;;;;;;;8.30;5.03;;;;;;;4.34;78.46;92555.25;2068365;69;20171;-76
2022/11/24 08:46:12;;;;;;;10.73;6.43;;;;;;;4.33;79.57;92556.56;2071705;69;20159;-75
2022/11/24 08:48:38;;;;;;;7.70;5.43;;;;;;;4.50;78.54;92555.84;2071670;69;20293;-74
2022/11/24 08:51:13;;;;;;;8.48;5.28;;;;;;;4.63;77.08;92561.06;2071768;69;20469;-76
2022/11/24 08:53:40;;;;;;;10.73;5.70;;;;;;;4.57;78.25;92557.78;2071682;69;20258;-75
2022/11/24 08:56:10;;;;;;;8.65;5.30;;;;;;;4.71;77.04;92560.97;2071662;69;20144;-75
2022/11/24 08:58:37;;;;;;;13.75;7.00;;;;;;;4.93;76.60;92557.16;2071621;69;20224;-75
2022/11/24 09:01:11;;;;;;;13.38;8.43;;;;;;;5.22;75.89;92551.00;2071642;69;20603;-76
2022/11/24 09:03:37;;;;;;;16.42;8.55;;;;;;;5.38;76.24;92551.53;2068164;69;20136;-76
2022/11/24 09:06:03;;;;;;;13.43;8.75;;;;;;;5.10;75.47;92537.56;2071642;69;20228;-77
2022/11/24 09:08:29;;;;;;;17.15;10.57;;;;;;;4.54;77.28;92533.84;2071705;69;20613;-76
2022/11/24 09:11:05;;;;;;;14.68;8.85;;;;;;;5.18;75.85;92533.94;2071621;69;20140;-77
2022/11/24 09:13:31;;;;;;;16.27;10.00;;;;;;;5.42;74.43;92519.06;2071614;69;20163;-76
2022/11/24 09:16:01;;;;;;;14.05;9.07;;;;;;;5.45;74.46;92523.50;2071531;69;20692;-76
2022/11/24 09:18:27;;;;;;;14.38;8.02;;;;;;;5.70;75.07;92522.53;2071567;69;20317;-76
2022/11/24 09:20:56;;;;;;;10.52;7.47;;;;;;;5.70;73.78;92525.34;2071589;69;20152;-76
2022/11/24 09:23:21;;;;;;;9.32;5.78;;;;;;;5.72;74.06;92529.00;2071565;69;20202;-76
2022/11/24 09:25:47;;;;;;;9.38;6.07;;;;;;;5.36;74.34;92540.94;2071578;69;20148;-76
2022/11/24 09:28:12;;;;;;;18.33;10.05;;;;;;;4.48;77.08;92539.66;2071586;69;20567;-76
2022/11/24 09:30:38;;;;;;;18.02;7.95;;;;;;;5.10;76.29;92543.16;2071546;69;20240;-77
2022/11/24 09:33:04;;;;;;;14.23;7.80;;;;;;;5.44;75.22;92555.50;2071357;69;20183;-77
2022/11/24 09:35:29;;;;;;;11.15;7.47;;;;;;;5.58;75.00;92569.81;2071419;69;20460;-77
2022/11/24 09:37:56;;;;;;;12.05;6.88;;;;;;;5.27;73.79;92577.91;2071555;69;20181;-77
2022/11/24 09:40:22;;;;;;;13.95;7.88;;;;;;;4.65;76.45;92591.91;2068329;69;20254;-77
2022/11/24 09:43:02;;;;;;;13.75;8.77;;;;;;;5.03;76.60;92593.47;2071508;69;20241;-76
2022/11/24 09:45:54;;;;;;;14.63;8.60;;;;;;;5.29;75.93;92589.22;2071572;69;20226;-77
2022/11/24 09:48:25;;;;;;;12.15;8.02;;;;;;;5.56;74.98;92592.00;2069675;69;20186;-77
2022/11/24 09:50:52;;;;;;;9.95;6.93;;;;;;;5.51;74.79;92576.25;2071728;69;20136;-77
2022/11/24 09:53:30;;;;;;;15.50;6.88;;;;;;;5.65;74.25;92594.09;2071634;69;20172;-76
2022/11/24 09:56:02;;;;;;;18.02;8.00;;;;;;;5.59;74.95;92585.28;2071648;69;20159;-77
2022/11/24 09:58:52;;;;;;;13.85;7.65;;;;;;;5.90;74.58;92582.72;2071689;69;20171;-77
2022/11/24 10:01:25;;;;;;;12.70;8.13;;;;;;;5.84;73.63;92566.25;2071675;69;20243;-76
2022/11/24 10:03:52;;;;;;;13.55;8.50;;;;;;;5.97;73.45;92579.09;2071559;69;20140;-77
2022/11/24 10:06:44;;;;;;;12.25;7.53;;;;;;;6.13;72.99;92576.78;2071598;69;20168;-78
2022/11/24 10:09:41;;;;;;;13.48;7.70;;;;;;;6.43;73.18;92572.72;2071576;69;20596;-77
2022/11/24 10:12:26;;;;;;;18.73;7.70;;;;;;;6.78;72.63;92564.03;2071611;69;20656;-76
2022/11/24 10:15:21;;;;;;;13.63;8.48;;;;;;;6.55;71.95;92570.06;2071491;69;20140;-77
2022/11/24 10:17:52;;;;;;;16.45;9.50;;;;;;;6.31;72.17;92569.00;2071432;69;20146;-77
2022/11/24 10:20:30;;;;;;;12.93;7.90;;;;;;;6.13;71.83;92562.81;2071553;69;20220;-77
2022/11/24 10:23:31;;;;;;;15.00;8.20;;;;;;;6.85;71.46;92560.34;2070967;69;20148;-77
2022/11/24 10:26:04;;;;;;;17.60;7.85;;;;;;;7.25;71.24;92570.16;2056844;69;20245;-77
2022/11/24 10:28:53;;;;;;;13.95;8.50;;;;;;;7.07;70.29;92573.13;2069271;69;20132;-78
2022/11/24 10:31:33;;;;;;;13.55;7.90;;;;;;;7.08;70.26;92557.81;2071550;69;20152;-77
2022/11/24 10:34:17;;;;;;;13.25;8.05;;;;;;;6.87;70.44;92558.44;2071416;69;20666;-78
2022/11/24 10:36:49;;;;;;;16.55;8.77;;;;;;;7.04;69.94;92553.97;2070904;69;20232;-77
2022/11/24 10:39:52;;;;;;;31.20;12.47;;;;;;;7.04;70.16;92553.97;2071524;69;20151;-78
2022/11/24 10:42:18;;;;;;;;;;;;;;;6.95;70.65;92554.72;2071725;69;20592;-77
2022/11/24 10:44:44;;;;;;;11.77;8.00;;;;;;;6.92;70.48;92561.50;2071352;69;20098;-78
2022/11/24 10:47:18;;;;;;;14.38;9.10;;;;;;;6.30;71.41;92565.47;2067885;69;20142;-78
2022/11/24 10:50:01;;;;;;;17.85;7.88;;;;;;;6.22;73.57;92569.72;2068036;69;20553;-78
2022/11/24 10:52:38;;;;;;;9.90;6.60;;;;;;;6.38;73.15;92581.41;2071383;69;20595;-78
2022/11/24 10:55:05;;;;;;;9.63;6.13;;;;;;;6.70;71.75;92578.19;2071420;69;20179;-78
2022/11/24 10:57:36;;;;;;;11.25;6.43;;;;;;;6.99;71.29;92571.81;2071394;69;20213;-77
2022/11/24 11:00:24;;;;;;;8.30;6.00;;;;;;;7.11;70.38;92570.63;2071542;69;20239;-78
2022/11/24 11:03:19;;;;;;;11.10;6.43;;;;;;;6.66;70.10;92577.13;2067949;69;20247;-78
2022/11/24 11:05:51;;;;;;;10.88;7.07;;;;;;;6.37;73.02;92569.47;2068139;69;20580;-78
2022/11/24 11:08:32;;;;;;;11.07;6.68;;;;;;;6.59;72.29;92571.09;2071522;69;20148;-78
2022/11/24 11:11:21;;;;;;;11.27;7.18;;;;;;;7.22;71.07;92560.88;2071387;69;20168;-78
2022/11/24 11:13:57;;;;;;;12.95;7.80;;;;;;;7.03;70.42;92558.13;2071355;69;20593;-77
2022/11/24 11:16:41;;;;;;;15.10;8.38;;;;;;;6.91;70.90;92560.78;2071276;69;20155;-76
2022/11/24 11:19:46;;;;;;;21.13;9.82;;;;;;;7.11;70.73;92561.50;2071395;69;20184;-76
2022/11/24 11:22:21;;;;;;;18.80;11.00;;;;;;;7.26;70.85;92555.56;2067965;69;20155;-75
2022/11/24 11:25:00;;;;;;;19.40;10.13;;;;;;;7.24;70.90;92555.44;2067896;69;20182;-76
2022/11/24 11:27:26;;;;;;;19.42;8.45;;;;;;;7.38;69.61;92553.63;2071268;69;20147;-76
2022/11/24 11:29:52;;;;;;;21.90;11.77;;;;;;;6.81;71.75;92563.56;2068057;69;20144;-76
2022/11/24 11:32:21;;;;;;;17.45;9.93;;;;;;;6.83;72.35;92580.53;2067806;69;20265;-76
2022/11/24 11:34:47;;;;;;;15.23;9.35;;;;;;;6.87;72.44;92578.03;2071347;69;20176;-76
2022/11/24 11:37:14;;;;;;;18.60;10.70;;;;;;;6.90;72.67;92578.91;2071333;69;20506;-77
2022/11/24 11:39:42;;;;;;;22.27;12.52;;;;;;;7.00;71.74;92595.69;2071286;69;20160;-76
2022/11/24 11:42:29;;;;;;;18.58;11.70;;;;;;;6.52;74.15;92593.63;2071241;69;20574;-76
2022/11/24 11:45:17;;;;;;;25.27;14.48;;;;;;;6.75;72.96;92607.91;2071320;69;20227;-76
2022/11/24 11:48:01;;;;;;;19.83;11.88;;;;;;;6.88;72.41;92609.53;2068037;69;20623;-76